sensor_id;sensor_type;location;lat;lon;timestamp;P1;durP1;ratioP1;P2;durP2;ratioP2
6193;SDS011;3130;41.564;23.280;2023-09-19T00:00:19;11.70;;;9.50;;
6193;SDS011;3130;41.564;23.280;2023-09-19T00:02:51;10.23;;;9.03;;
6193;SDS011;3130;41.564;23.280;2023-09-19T00:05:19;11.53;;;8.73;;
6193;SDS011;3130;41.564;23.280;2023-09-19T00:07:49;15.97;;;10.97;;
6193;SDS011;3130;41.564;23.280;2023-09-19T00:10:19;11.30;;;9.63;;
6193;SDS011;3130;41.564;23.280;2023-09-19T00:12:47;10.27;;;9.03;;
6193;SDS011;3130;41.564;23.280;2023-09-19T00:15:16;10.27;;;8.77;;
6193;SDS011;3130;41.564;23.280;2023-09-19T00:17:44;10.30;;;9.20;;
6193;SDS011;3130;41.564;23.280;2023-09-19T00:20:12;11.50;;;9.03;;
6193;SDS011;3130;41.564;23.280;2023-09-19T00:22:42;11.00;;;9.40;;
6193;SDS011;3130;41.564;23.280;2023-09-19T00:25:10;12.67;;;9.80;;
6193;SDS011;3130;41.564;23.280;2023-09-19T00:27:41;10.37;;;8.87;;
6193;SDS011;3130;41.564;23.280;2023-09-19T00:30:10;14.03;;;10.40;;
6193;SDS011;3130;41.564;23.280;2023-09-19T00:32:46;11.53;;;9.70;;
6193;SDS011;3130;41.564;23.280;2023-09-19T00:35:14;11.40;;;10.20;;
6193;SDS011;3130;41.564;23.280;2023-09-19T00:37:42;12.30;;;9.73;;
6193;SDS011;3130;41.564;23.280;2023-09-19T00:40:10;13.17;;;9.80;;
6193;SDS011;3130;41.564;23.280;2023-09-19T00:42:38;10.83;;;9.73;;
6193;SDS011;3130;41.564;23.280;2023-09-19T00:45:06;11.77;;;10.40;;
6193;SDS011;3130;41.564;23.280;2023-09-19T00:47:36;12.87;;;9.30;;
6193;SDS011;3130;41.564;23.280;2023-09-19T00:50:06;13.60;;;9.90;;
6193;SDS011;3130;41.564;23.280;2023-09-19T00:52:36;12.40;;;10.37;;
6193;SDS011;3130;41.564;23.280;2023-09-19T00:55:05;14.73;;;11.07;;
6193;SDS011;3130;41.564;23.280;2023-09-19T00:57:33;10.77;;;9.67;;
6193;SDS011;3130;41.564;23.280;2023-09-19T01:00:03;11.43;;;10.23;;
6193;SDS011;3130;41.564;23.280;2023-09-19T01:02:33;11.67;;;9.67;;
6193;SDS011;3130;41.564;23.280;2023-09-19T01:05:02;11.30;;;8.93;;
6193;SDS011;3130;41.564;23.280;2023-09-19T01:07:32;11.20;;;9.67;;
6193;SDS011;3130;41.564;23.280;2023-09-19T01:10:00;10.40;;;9.20;;
6193;SDS011;3130;41.564;23.280;2023-09-19T01:12:33;11.03;;;9.57;;
6193;SDS011;3130;41.564;23.280;2023-09-19T01:15:12;15.63;;;10.83;;
6193;SDS011;3130;41.564;23.280;2023-09-19T01:17:48;12.03;;;10.73;;
6193;SDS011;3130;41.564;23.280;2023-09-19T01:20:27;14.30;;;11.43;;
6193;SDS011;3130;41.564;23.280;2023-09-19T01:23:08;12.27;;;10.40;;
6193;SDS011;3130;41.564;23.280;2023-09-19T01:25:51;12.20;;;10.63;;
6193;SDS011;3130;41.564;23.280;2023-09-19T01:28:45;12.27;;;9.67;;
6193;SDS011;3130;41.564;23.280;2023-09-19T01:31:22;15.90;;;10.87;;
6193;SDS011;3130;41.564;23.280;2023-09-19T01:33:55;11.53;;;10.23;;
6193;SDS011;3130;41.564;23.280;2023-09-19T01:36:25;12.20;;;10.43;;
6193;SDS011;3130;41.564;23.280;2023-09-19T01:38:57;13.03;;;9.90;;
6193;SDS011;3130;41.564;23.280;2023-09-19T01:44:22;12.03;;;9.57;;
6193;SDS011;3130;41.564;23.280;2023-09-19T01:46:58;12.97;;;10.60;;
6193;SDS011;3130;41.564;23.280;2023-09-19T01:49:33;10.60;;;9.33;;
6193;SDS011;3130;41.564;23.280;2023-09-19T01:52:09;13.03;;;9.77;;
6193;SDS011;3130;41.564;23.280;2023-09-19T01:54:41;11.40;;;9.13;;
6193;SDS011;3130;41.564;23.280;2023-09-19T01:57:17;13.60;;;10.27;;
6193;SDS011;3130;41.564;23.280;2023-09-19T01:59:54;11.93;;;9.97;;
6193;SDS011;3130;41.564;23.280;2023-09-19T02:02:33;11.97;;;9.90;;
6193;SDS011;3130;41.564;23.280;2023-09-19T02:05:03;11.87;;;9.53;;
6193;SDS011;3130;41.564;23.280;2023-09-19T02:07:31;10.83;;;9.63;;
6193;SDS011;3130;41.564;23.280;2023-09-19T02:09:59;12.07;;;9.77;;
6193;SDS011;3130;41.564;23.280;2023-09-19T02:12:28;12.00;;;10.60;;
6193;SDS011;3130;41.564;23.280;2023-09-19T02:14:56;10.57;;;9.47;;
6193;SDS011;3130;41.564;23.280;2023-09-19T02:17:24;13.27;;;10.40;;
6193;SDS011;3130;41.564;23.280;2023-09-19T02:19:53;14.90;;;10.40;;
6193;SDS011;3130;41.564;23.280;2023-09-19T02:22:22;11.37;;;9.67;;
6193;SDS011;3130;41.564;23.280;2023-09-19T02:24:50;12.67;;;9.93;;
6193;SDS011;3130;41.564;23.280;2023-09-19T02:27:17;10.63;;;9.30;;
6193;SDS011;3130;41.564;23.280;2023-09-19T02:29:45;12.60;;;10.40;;
6193;SDS011;3130;41.564;23.280;2023-09-19T02:32:13;12.40;;;10.87;;
6193;SDS011;3130;41.564;23.280;2023-09-19T02:34:40;15.07;;;10.83;;
6193;SDS011;3130;41.564;23.280;2023-09-19T02:37:09;12.60;;;10.97;;
6193;SDS011;3130;41.564;23.280;2023-09-19T02:39:38;11.40;;;10.20;;
6193;SDS011;3130;41.564;23.280;2023-09-19T02:42:05;12.53;;;10.67;;
6193;SDS011;3130;41.564;23.280;2023-09-19T02:44:33;12.33;;;10.43;;
6193;SDS011;3130;41.564;23.280;2023-09-19T02:47:00;15.17;;;11.60;;
6193;SDS011;3130;41.564;23.280;2023-09-19T02:49:28;12.53;;;11.13;;
6193;SDS011;3130;41.564;23.280;2023-09-19T02:51:55;12.33;;;10.90;;
6193;SDS011;3130;41.564;23.280;2023-09-19T02:54:25;11.93;;;10.47;;
6193;SDS011;3130;41.564;23.280;2023-09-19T02:56:53;14.00;;;10.80;;
6193;SDS011;3130;41.564;23.280;2023-09-19T02:59:20;12.77;;;10.37;;
6193;SDS011;3130;41.564;23.280;2023-09-19T03:01:48;11.90;;;10.43;;
6193;SDS011;3130;41.564;23.280;2023-09-19T03:04:15;14.37;;;11.30;;
6193;SDS011;3130;41.564;23.280;2023-09-19T03:06:45;13.63;;;10.77;;
6193;SDS011;3130;41.564;23.280;2023-09-19T03:09:14;12.30;;;10.10;;
6193;SDS011;3130;41.564;23.280;2023-09-19T03:11:43;12.60;;;11.03;;
6193;SDS011;3130;41.564;23.280;2023-09-19T03:14:11;12.73;;;10.30;;
6193;SDS011;3130;41.564;23.280;2023-09-19T03:16:39;12.97;;;10.17;;
6193;SDS011;3130;41.564;23.280;2023-09-19T03:19:07;10.63;;;9.03;;
6193;SDS011;3130;41.564;23.280;2023-09-19T03:21:35;11.60;;;10.27;;
6193;SDS011;3130;41.564;23.280;2023-09-19T03:24:04;11.43;;;10.23;;
6193;SDS011;3130;41.564;23.280;2023-09-19T03:26:32;14.80;;;11.13;;
6193;SDS011;3130;41.564;23.280;2023-09-19T03:29:02;12.37;;;11.07;;
6193;SDS011;3130;41.564;23.280;2023-09-19T03:31:33;12.50;;;10.80;;
6193;SDS011;3130;41.564;23.280;2023-09-19T03:34:02;14.47;;;11.93;;
6193;SDS011;3130;41.564;23.280;2023-09-19T03:36:30;13.10;;;11.70;;
6193;SDS011;3130;41.564;23.280;2023-09-19T03:38:57;13.97;;;11.57;;
6193;SDS011;3130;41.564;23.280;2023-09-19T03:41:24;15.13;;;11.23;;
6193;SDS011;3130;41.564;23.280;2023-09-19T03:43:51;16.40;;;12.03;;
6193;SDS011;3130;41.564;23.280;2023-09-19T03:46:20;13.17;;;11.30;;
6193;SDS011;3130;41.564;23.280;2023-09-19T03:48:47;17.63;;;11.63;;
6193;SDS011;3130;41.564;23.280;2023-09-19T03:51:15;13.80;;;10.87;;
6193;SDS011;3130;41.564;23.280;2023-09-19T03:53:42;13.97;;;11.77;;
6193;SDS011;3130;41.564;23.280;2023-09-19T03:56:09;14.50;;;11.93;;
6193;SDS011;3130;41.564;23.280;2023-09-19T03:58:36;14.13;;;11.27;;
6193;SDS011;3130;41.564;23.280;2023-09-19T04:01:04;14.70;;;10.77;;
6193;SDS011;3130;41.564;23.280;2023-09-19T04:03:33;15.07;;;10.33;;
6193;SDS011;3130;41.564;23.280;2023-09-19T04:06:11;12.17;;;9.90;;
6193;SDS011;3130;41.564;23.280;2023-09-19T04:08:38;13.60;;;10.73;;
6193;SDS011;3130;41.564;23.280;2023-09-19T04:11:05;16.33;;;10.83;;
6193;SDS011;3130;41.564;23.280;2023-09-19T04:13:33;12.63;;;10.20;;
6193;SDS011;3130;41.564;23.280;2023-09-19T04:16:00;12.40;;;11.17;;
6193;SDS011;3130;41.564;23.280;2023-09-19T04:18:29;16.10;;;11.97;;
6193;SDS011;3130;41.564;23.280;2023-09-19T04:21:00;11.03;;;9.90;;
6193;SDS011;3130;41.564;23.280;2023-09-19T04:23:30;15.73;;;12.67;;
6193;SDS011;3130;41.564;23.280;2023-09-19T04:25:57;12.00;;;10.70;;
6193;SDS011;3130;41.564;23.280;2023-09-19T04:28:25;12.87;;;10.97;;
6193;SDS011;3130;41.564;23.280;2023-09-19T04:30:53;13.60;;;11.17;;
6193;SDS011;3130;41.564;23.280;2023-09-19T04:33:21;16.47;;;12.30;;
6193;SDS011;3130;41.564;23.280;2023-09-19T04:35:49;15.10;;;13.13;;
6193;SDS011;3130;41.564;23.280;2023-09-19T04:38:18;15.63;;;11.60;;
6193;SDS011;3130;41.564;23.280;2023-09-19T04:40:45;14.80;;;11.00;;
6193;SDS011;3130;41.564;23.280;2023-09-19T04:43:12;17.80;;;11.83;;
6193;SDS011;3130;41.564;23.280;2023-09-19T04:45:40;12.83;;;11.50;;
6193;SDS011;3130;41.564;23.280;2023-09-19T04:48:07;15.57;;;12.33;;
6193;SDS011;3130;41.564;23.280;2023-09-19T04:50:36;13.50;;;11.27;;
6193;SDS011;3130;41.564;23.280;2023-09-19T04:53:03;13.67;;;12.07;;
6193;SDS011;3130;41.564;23.280;2023-09-19T04:55:33;17.73;;;11.40;;
6193;SDS011;3130;41.564;23.280;2023-09-19T04:58:01;11.77;;;10.47;;
6193;SDS011;3130;41.564;23.280;2023-09-19T05:00:29;12.40;;;11.20;;
6193;SDS011;3130;41.564;23.280;2023-09-19T05:03:00;13.20;;;11.27;;
6193;SDS011;3130;41.564;23.280;2023-09-19T05:05:29;11.47;;;10.27;;
6193;SDS011;3130;41.564;23.280;2023-09-19T05:07:56;12.40;;;11.10;;
6193;SDS011;3130;41.564;23.280;2023-09-19T05:10:24;13.63;;;10.70;;
6193;SDS011;3130;41.564;23.280;2023-09-19T05:12:54;15.43;;;10.73;;
6193;SDS011;3130;41.564;23.280;2023-09-19T05:15:22;13.07;;;11.67;;
6193;SDS011;3130;41.564;23.280;2023-09-19T05:17:49;11.37;;;10.03;;
6193;SDS011;3130;41.564;23.280;2023-09-19T05:20:17;11.87;;;10.50;;
6193;SDS011;3130;41.564;23.280;2023-09-19T05:22:50;13.20;;;11.00;;
6193;SDS011;3130;41.564;23.280;2023-09-19T05:25:23;14.57;;;10.47;;
6193;SDS011;3130;41.564;23.280;2023-09-19T05:27:54;12.27;;;11.03;;
6193;SDS011;3130;41.564;23.280;2023-09-19T05:30:22;14.00;;;10.30;;
6193;SDS011;3130;41.564;23.280;2023-09-19T05:32:50;14.13;;;11.43;;
6193;SDS011;3130;41.564;23.280;2023-09-19T05:35:17;11.77;;;10.10;;
6193;SDS011;3130;41.564;23.280;2023-09-19T05:37:46;13.17;;;11.87;;
6193;SDS011;3130;41.564;23.280;2023-09-19T05:40:16;16.07;;;11.37;;
6193;SDS011;3130;41.564;23.280;2023-09-19T05:42:43;11.57;;;10.47;;
6193;SDS011;3130;41.564;23.280;2023-09-19T05:45:12;14.43;;;11.63;;
6193;SDS011;3130;41.564;23.280;2023-09-19T05:47:44;14.33;;;11.23;;
6193;SDS011;3130;41.564;23.280;2023-09-19T05:50:12;13.33;;;11.17;;
6193;SDS011;3130;41.564;23.280;2023-09-19T05:52:40;13.40;;;11.03;;
6193;SDS011;3130;41.564;23.280;2023-09-19T05:55:09;13.20;;;10.70;;
6193;SDS011;3130;41.564;23.280;2023-09-19T05:57:36;12.10;;;10.87;;
6193;SDS011;3130;41.564;23.280;2023-09-19T06:00:05;10.90;;;9.80;;
6193;SDS011;3130;41.564;23.280;2023-09-19T06:02:37;10.80;;;9.33;;
6193;SDS011;3130;41.564;23.280;2023-09-19T06:05:06;12.37;;;11.07;;
6193;SDS011;3130;41.564;23.280;2023-09-19T06:07:35;12.00;;;10.50;;
6193;SDS011;3130;41.564;23.280;2023-09-19T06:10:03;13.07;;;10.27;;
6193;SDS011;3130;41.564;23.280;2023-09-19T06:12:32;13.03;;;11.73;;
6193;SDS011;3130;41.564;23.280;2023-09-19T06:15:02;12.57;;;10.77;;
6193;SDS011;3130;41.564;23.280;2023-09-19T06:17:33;12.80;;;10.17;;
6193;SDS011;3130;41.564;23.280;2023-09-19T06:20:05;14.07;;;10.40;;
6193;SDS011;3130;41.564;23.280;2023-09-19T06:22:38;13.80;;;9.93;;
6193;SDS011;3130;41.564;23.280;2023-09-19T06:25:07;11.60;;;10.37;;
6193;SDS011;3130;41.564;23.280;2023-09-19T06:27:36;10.60;;;9.50;;
6193;SDS011;3130;41.564;23.280;2023-09-19T06:30:07;11.30;;;10.00;;
6193;SDS011;3130;41.564;23.280;2023-09-19T06:32:35;11.13;;;10.03;;
6193;SDS011;3130;41.564;23.280;2023-09-19T06:35:03;12.13;;;10.80;;
6193;SDS011;3130;41.564;23.280;2023-09-19T06:37:34;13.60;;;10.67;;
6193;SDS011;3130;41.564;23.280;2023-09-19T06:40:04;12.40;;;9.83;;
6193;SDS011;3130;41.564;23.280;2023-09-19T06:42:34;10.40;;;9.40;;
6193;SDS011;3130;41.564;23.280;2023-09-19T06:45:02;10.77;;;9.67;;
6193;SDS011;3130;41.564;23.280;2023-09-19T06:47:31;14.43;;;10.97;;
6193;SDS011;3130;41.564;23.280;2023-09-19T06:49:58;19.97;;;11.90;;
6193;SDS011;3130;41.564;23.280;2023-09-19T06:52:29;10.37;;;9.37;;
6193;SDS011;3130;41.564;23.280;2023-09-19T06:54:57;10.47;;;8.83;;
6193;SDS011;3130;41.564;23.280;2023-09-19T06:57:24;9.53;;;8.53;;
6193;SDS011;3130;41.564;23.280;2023-09-19T06:59:51;12.07;;;9.77;;
6193;SDS011;3130;41.564;23.280;2023-09-19T07:02:19;12.77;;;9.23;;
6193;SDS011;3130;41.564;23.280;2023-09-19T07:04:47;9.50;;;8.60;;
6193;SDS011;3130;41.564;23.280;2023-09-19T07:07:14;10.90;;;9.10;;
6193;SDS011;3130;41.564;23.280;2023-09-19T07:09:43;9.87;;;8.37;;
6193;SDS011;3130;41.564;23.280;2023-09-19T07:12:10;8.87;;;8.03;;
6193;SDS011;3130;41.564;23.280;2023-09-19T07:14:39;13.50;;;9.17;;
6193;SDS011;3130;41.564;23.280;2023-09-19T07:17:06;11.27;;;9.23;;
6193;SDS011;3130;41.564;23.280;2023-09-19T07:19:34;9.63;;;8.37;;
6193;SDS011;3130;41.564;23.280;2023-09-19T07:22:01;12.03;;;9.83;;
6193;SDS011;3130;41.564;23.280;2023-09-19T07:24:28;10.33;;;8.53;;
6193;SDS011;3130;41.564;23.280;2023-09-19T07:26:58;12.23;;;9.53;;
6193;SDS011;3130;41.564;23.280;2023-09-19T07:29:25;10.70;;;8.77;;
6193;SDS011;3130;41.564;23.280;2023-09-19T07:31:52;11.17;;;9.33;;
6193;SDS011;3130;41.564;23.280;2023-09-19T07:34:19;10.73;;;9.00;;
6193;SDS011;3130;41.564;23.280;2023-09-19T07:36:48;10.00;;;9.00;;
6193;SDS011;3130;41.564;23.280;2023-09-19T07:39:15;8.80;;;7.90;;
6193;SDS011;3130;41.564;23.280;2023-09-19T07:41:42;10.35;;;9.35;;
6193;SDS011;3130;41.564;23.280;2023-09-19T07:44:11;12.57;;;8.35;;
6193;SDS011;3130;41.564;23.280;2023-09-19T07:46:38;9.65;;;8.00;;
6193;SDS011;3130;41.564;23.280;2023-09-19T07:49:05;10.35;;;8.88;;
6193;SDS011;3130;41.564;23.280;2023-09-19T07:51:33;9.13;;;8.23;;
6193;SDS011;3130;41.564;23.280;2023-09-19T07:54:01;10.32;;;8.63;;
6193;SDS011;3130;41.564;23.280;2023-09-19T07:56:28;11.82;;;7.72;;
6193;SDS011;3130;41.564;23.280;2023-09-19T07:58:57;8.57;;;7.72;;
6193;SDS011;3130;41.564;23.280;2023-09-19T08:01:26;9.95;;;7.63;;
6193;SDS011;3130;41.564;23.280;2023-09-19T08:03:53;9.43;;;6.95;;
6193;SDS011;3130;41.564;23.280;2023-09-19T08:06:21;7.57;;;6.88;;
6193;SDS011;3130;41.564;23.280;2023-09-19T08:08:50;8.32;;;6.90;;
6193;SDS011;3130;41.564;23.280;2023-09-19T08:11:20;8.50;;;6.72;;
6193;SDS011;3130;41.564;23.280;2023-09-19T08:13:49;8.63;;;7.82;;
6193;SDS011;3130;41.564;23.280;2023-09-19T08:16:17;8.73;;;7.80;;
6193;SDS011;3130;41.564;23.280;2023-09-19T08:18:49;8.50;;;7.70;;
6193;SDS011;3130;41.564;23.280;2023-09-19T08:21:20;10.18;;;7.30;;
6193;SDS011;3130;41.564;23.280;2023-09-19T08:23:48;10.63;;;8.20;;
6193;SDS011;3130;41.564;23.280;2023-09-19T08:26:16;10.13;;;8.60;;
6193;SDS011;3130;41.564;23.280;2023-09-19T08:28:45;8.82;;;7.78;;
6193;SDS011;3130;41.564;23.280;2023-09-19T08:31:13;11.75;;;8.45;;
6193;SDS011;3130;41.564;23.280;2023-09-19T08:33:41;8.57;;;7.78;;
6193;SDS011;3130;41.564;23.280;2023-09-19T08:36:11;9.82;;;8.82;;
6193;SDS011;3130;41.564;23.280;2023-09-19T08:38:39;10.90;;;8.07;;
6193;SDS011;3130;41.564;23.280;2023-09-19T08:41:07;9.45;;;8.50;;
6193;SDS011;3130;41.564;23.280;2023-09-19T08:43:34;13.32;;;8.98;;
6193;SDS011;3130;41.564;23.280;2023-09-19T08:46:03;8.35;;;7.32;;
6193;SDS011;3130;41.564;23.280;2023-09-19T08:48:37;9.07;;;8.18;;
6193;SDS011;3130;41.564;23.280;2023-09-19T08:51:12;9.65;;;8.57;;
6193;SDS011;3130;41.564;23.280;2023-09-19T08:53:47;9.02;;;7.97;;
6193;SDS011;3130;41.564;23.280;2023-09-19T08:56:18;10.25;;;8.00;;
6193;SDS011;3130;41.564;23.280;2023-09-19T08:58:48;10.55;;;8.35;;
6193;SDS011;3130;41.564;23.280;2023-09-19T09:01:19;10.50;;;8.70;;
6193;SDS011;3130;41.564;23.280;2023-09-19T09:03:50;8.77;;;7.55;;
6193;SDS011;3130;41.564;23.280;2023-09-19T09:06:20;10.38;;;9.35;;
6193;SDS011;3130;41.564;23.280;2023-09-19T09:08:48;8.98;;;8.07;;
6193;SDS011;3130;41.564;23.280;2023-09-19T09:11:17;8.90;;;8.00;;
6193;SDS011;3130;41.564;23.280;2023-09-19T09:13:45;9.43;;;8.18;;
6193;SDS011;3130;41.564;23.280;2023-09-19T09:16:13;10.52;;;9.25;;
6193;SDS011;3130;41.564;23.280;2023-09-19T09:18:42;16.83;;;13.68;;
6193;SDS011;3130;41.564;23.280;2023-09-19T09:21:10;12.07;;;9.68;;
6193;SDS011;3130;41.564;23.280;2023-09-19T09:23:42;10.57;;;8.50;;
6193;SDS011;3130;41.564;23.280;2023-09-19T09:26:12;9.88;;;8.15;;
6193;SDS011;3130;41.564;23.280;2023-09-19T09:28:44;9.20;;;8.30;;
6193;SDS011;3130;41.564;23.280;2023-09-19T09:31:21;9.55;;;8.68;;
6193;SDS011;3130;41.564;23.280;2023-09-19T09:33:52;11.88;;;8.05;;
6193;SDS011;3130;41.564;23.280;2023-09-19T09:36:33;10.40;;;8.60;;
6193;SDS011;3130;41.564;23.280;2023-09-19T09:39:03;9.73;;;8.45;;
6193;SDS011;3130;41.564;23.280;2023-09-19T09:41:43;9.25;;;8.27;;
6193;SDS011;3130;41.564;23.280;2023-09-19T09:44:14;8.90;;;8.05;;
6193;SDS011;3130;41.564;23.280;2023-09-19T09:46:44;10.25;;;8.27;;
6193;SDS011;3130;41.564;23.280;2023-09-19T09:49:40;12.40;;;8.57;;
6193;SDS011;3130;41.564;23.280;2023-09-19T09:52:19;12.23;;;7.93;;
6193;SDS011;3130;41.564;23.280;2023-09-19T09:54:59;9.38;;;8.40;;
6193;SDS011;3130;41.564;23.280;2023-09-19T09:57:30;13.65;;;9.68;;
6193;SDS011;3130;41.564;23.280;2023-09-19T09:59:59;9.98;;;8.00;;
6193;SDS011;3130;41.564;23.280;2023-09-19T10:02:41;11.68;;;8.32;;
6193;SDS011;3130;41.564;23.280;2023-09-19T10:05:12;9.63;;;8.70;;
6193;SDS011;3130;41.564;23.280;2023-09-19T10:07:46;8.98;;;8.07;;
6193;SDS011;3130;41.564;23.280;2023-09-19T10:10:30;9.35;;;7.93;;
6193;SDS011;3130;41.564;23.280;2023-09-19T10:13:09;9.20;;;8.07;;
6193;SDS011;3130;41.564;23.280;2023-09-19T10:15:40;8.57;;;7.30;;
6193;SDS011;3130;41.564;23.280;2023-09-19T10:18:16;8.88;;;7.97;;
6193;SDS011;3130;41.564;23.280;2023-09-19T10:20:47;9.25;;;7.40;;
6193;SDS011;3130;41.564;23.280;2023-09-19T10:23:16;9.07;;;8.18;;
6193;SDS011;3130;41.564;23.280;2023-09-19T10:25:49;8.57;;;7.53;;
6193;SDS011;3130;41.564;23.280;2023-09-19T10:28:18;8.15;;;7.30;;
6193;SDS011;3130;41.564;23.280;2023-09-19T10:30:48;9.00;;;7.93;;
6193;SDS011;3130;41.564;23.280;2023-09-19T10:33:17;10.00;;;8.85;;
6193;SDS011;3130;41.564;23.280;2023-09-19T10:35:46;9.88;;;8.73;;
6193;SDS011;3130;41.564;23.280;2023-09-19T10:38:17;9.88;;;7.35;;
6193;SDS011;3130;41.564;23.280;2023-09-19T10:40:48;10.07;;;8.52;;
6193;SDS011;3130;41.564;23.280;2023-09-19T10:43:19;9.40;;;7.88;;
6193;SDS011;3130;41.564;23.280;2023-09-19T10:45:48;8.98;;;7.75;;
6193;SDS011;3130;41.564;23.280;2023-09-19T10:48:17;12.30;;;8.27;;
6193;SDS011;3130;41.564;23.280;2023-09-19T10:50:46;10.95;;;9.00;;
6193;SDS011;3130;41.564;23.280;2023-09-19T10:53:17;10.75;;;8.20;;
6193;SDS011;3130;41.564;23.280;2023-09-19T10:55:48;9.65;;;8.48;;
6193;SDS011;3130;41.564;23.280;2023-09-19T10:58:26;9.90;;;8.30;;
6193;SDS011;3130;41.564;23.280;2023-09-19T11:00:55;10.38;;;8.43;;
6193;SDS011;3130;41.564;23.280;2023-09-19T11:03:27;9.07;;;8.18;;
6193;SDS011;3130;41.564;23.280;2023-09-19T11:06:03;9.20;;;8.30;;
6193;SDS011;3130;41.564;23.280;2023-09-19T11:11:40;9.45;;;8.45;;
6193;SDS011;3130;41.564;23.280;2023-09-19T11:14:30;11.70;;;7.60;;
6193;SDS011;3130;41.564;23.280;2023-09-19T11:20:24;10.68;;;8.45;;
6193;SDS011;3130;41.564;23.280;2023-09-19T11:23:17;9.18;;;8.23;;
6193;SDS011;3130;41.564;23.280;2023-09-19T11:25:48;10.48;;;8.15;;
6193;SDS011;3130;41.564;23.280;2023-09-19T11:28:30;9.10;;;7.45;;
6193;SDS011;3130;41.564;23.280;2023-09-19T11:30:57;8.75;;;7.70;;
6193;SDS011;3130;41.564;23.280;2023-09-19T11:33:25;8.38;;;7.57;;
6193;SDS011;3130;41.564;23.280;2023-09-19T11:35:59;13.70;;;9.73;;
6193;SDS011;3130;41.564;23.280;2023-09-19T11:41:40;8.35;;;7.55;;
6193;SDS011;3130;41.564;23.280;2023-09-19T11:47:03;10.70;;;8.82;;
6193;SDS011;3130;41.564;23.280;2023-09-19T11:49:32;8.95;;;8.05;;
6193;SDS011;3130;41.564;23.280;2023-09-19T11:52:00;9.70;;;8.70;;
6193;SDS011;3130;41.564;23.280;2023-09-19T11:54:31;10.15;;;8.60;;
6193;SDS011;3130;41.564;23.280;2023-09-19T11:56:59;8.82;;;7.80;;
6193;SDS011;3130;41.564;23.280;2023-09-19T11:59:28;9.27;;;8.38;;
6193;SDS011;3130;41.564;23.280;2023-09-19T12:02:00;9.43;;;8.23;;
6193;SDS011;3130;41.564;23.280;2023-09-19T12:04:33;8.35;;;7.35;;
6193;SDS011;3130;41.564;23.280;2023-09-19T12:07:04;9.45;;;7.78;;
6193;SDS011;3130;41.564;23.280;2023-09-19T12:09:38;8.48;;;7.25;;
6193;SDS011;3130;41.564;23.280;2023-09-19T12:12:09;7.78;;;6.97;;
6193;SDS011;3130;41.564;23.280;2023-09-19T12:14:43;8.38;;;7.15;;
6193;SDS011;3130;41.564;23.280;2023-09-19T12:17:17;8.55;;;7.72;;
6193;SDS011;3130;41.564;23.280;2023-09-19T12:19:49;8.05;;;7.20;;
6193;SDS011;3130;41.564;23.280;2023-09-19T12:22:18;8.07;;;7.28;;
6193;SDS011;3130;41.564;23.280;2023-09-19T12:24:46;9.02;;;8.13;;
6193;SDS011;3130;41.564;23.280;2023-09-19T12:27:14;8.20;;;7.35;;
6193;SDS011;3130;41.564;23.280;2023-09-19T12:29:42;11.73;;;8.80;;
6193;SDS011;3130;41.564;23.280;2023-09-19T12:32:10;8.15;;;6.70;;
6193;SDS011;3130;41.564;23.280;2023-09-19T12:34:40;8.27;;;7.40;;
6193;SDS011;3130;41.564;23.280;2023-09-19T12:37:09;8.63;;;7.68;;
6193;SDS011;3130;41.564;23.280;2023-09-19T12:39:46;10.82;;;7.63;;
6193;SDS011;3130;41.564;23.280;2023-09-19T12:42:16;9.43;;;8.10;;
6193;SDS011;3130;41.564;23.280;2023-09-19T12:44:46;10.07;;;7.72;;
6193;SDS011;3130;41.564;23.280;2023-09-19T12:47:18;9.43;;;6.90;;
6193;SDS011;3130;41.564;23.280;2023-09-19T12:50:08;8.70;;;7.80;;
6193;SDS011;3130;41.564;23.280;2023-09-19T12:52:40;7.72;;;6.72;;
6193;SDS011;3130;41.564;23.280;2023-09-19T12:55:19;8.40;;;7.60;;
6193;SDS011;3130;41.564;23.280;2023-09-19T12:57:58;8.27;;;7.22;;
6193;SDS011;3130;41.564;23.280;2023-09-19T13:00:32;8.32;;;7.53;;
6193;SDS011;3130;41.564;23.280;2023-09-19T13:03:14;8.77;;;7.82;;
6193;SDS011;3130;41.564;23.280;2023-09-19T13:05:53;8.90;;;7.80;;
6193;SDS011;3130;41.564;23.280;2023-09-19T13:08:23;10.25;;;8.20;;
6193;SDS011;3130;41.564;23.280;2023-09-19T13:11:01;8.50;;;7.50;;
6193;SDS011;3130;41.564;23.280;2023-09-19T13:13:40;7.68;;;6.88;;
6193;SDS011;3130;41.564;23.280;2023-09-19T13:16:09;8.07;;;7.28;;
6193;SDS011;3130;41.564;23.280;2023-09-19T13:18:43;7.93;;;6.85;;
6193;SDS011;3130;41.564;23.280;2023-09-19T13:21:26;8.77;;;7.75;;
6193;SDS011;3130;41.564;23.280;2023-09-19T13:23:55;9.60;;;8.23;;
6193;SDS011;3130;41.564;23.280;2023-09-19T13:26:42;10.10;;;8.07;;
6193;SDS011;3130;41.564;23.280;2023-09-19T13:29:10;8.95;;;7.90;;
6193;SDS011;3130;41.564;23.280;2023-09-19T13:31:37;8.88;;;7.70;;
6193;SDS011;3130;41.564;23.280;2023-09-19T13:34:06;12.95;;;9.00;;
6193;SDS011;3130;41.564;23.280;2023-09-19T13:36:35;8.65;;;7.82;;
6193;SDS011;3130;41.564;23.280;2023-09-19T13:39:03;9.05;;;8.13;;
6193;SDS011;3130;41.564;23.280;2023-09-19T13:41:32;8.02;;;6.88;;
6193;SDS011;3130;41.564;23.280;2023-09-19T13:44:01;10.80;;;7.35;;
6193;SDS011;3130;41.564;23.280;2023-09-19T13:46:29;10.30;;;7.68;;
6193;SDS011;3130;41.564;23.280;2023-09-19T13:48:58;9.02;;;8.10;;
6193;SDS011;3130;41.564;23.280;2023-09-19T13:51:28;8.23;;;7.43;;
6193;SDS011;3130;41.564;23.280;2023-09-19T13:53:58;8.25;;;7.45;;
6193;SDS011;3130;41.564;23.280;2023-09-19T13:56:25;8.98;;;7.93;;
6193;SDS011;3130;41.564;23.280;2023-09-19T13:58:55;8.05;;;6.95;;
6193;SDS011;3130;41.564;23.280;2023-09-19T14:01:22;8.90;;;7.53;;
6193;SDS011;3130;41.564;23.280;2023-09-19T14:03:51;10.48;;;8.48;;
6193;SDS011;3130;41.564;23.280;2023-09-19T14:06:21;8.02;;;7.22;;
6193;SDS011;3130;41.564;23.280;2023-09-19T14:08:48;10.18;;;8.55;;
6193;SDS011;3130;41.564;23.280;2023-09-19T14:11:17;9.60;;;8.05;;
6193;SDS011;3130;41.564;23.280;2023-09-19T14:13:44;10.85;;;8.98;;
6193;SDS011;3130;41.564;23.280;2023-09-19T14:16:14;9.27;;;7.70;;
6193;SDS011;3130;41.564;23.280;2023-09-19T14:18:42;8.65;;;7.85;;
6193;SDS011;3130;41.564;23.280;2023-09-19T14:21:11;8.52;;;7.30;;
6193;SDS011;3130;41.564;23.280;2023-09-19T14:23:40;9.38;;;7.90;;
6193;SDS011;3130;41.564;23.280;2023-09-19T14:26:08;11.13;;;7.68;;
6193;SDS011;3130;41.564;23.280;2023-09-19T14:28:37;7.43;;;6.72;;
6193;SDS011;3130;41.564;23.280;2023-09-19T14:31:05;10.00;;;7.90;;
6193;SDS011;3130;41.564;23.280;2023-09-19T14:33:33;9.73;;;8.18;;
6193;SDS011;3130;41.564;23.280;2023-09-19T14:36:02;8.70;;;7.80;;
6193;SDS011;3130;41.564;23.280;2023-09-19T14:38:31;10.95;;;8.32;;
6193;SDS011;3130;41.564;23.280;2023-09-19T14:41:00;9.18;;;7.82;;
6193;SDS011;3130;41.564;23.280;2023-09-19T14:43:27;10.10;;;9.10;;
6193;SDS011;3130;41.564;23.280;2023-09-19T14:45:57;9.68;;;8.48;;
6193;SDS011;3130;41.564;23.280;2023-09-19T14:48:24;10.73;;;7.93;;
6193;SDS011;3130;41.564;23.280;2023-09-19T14:50:51;9.23;;;8.27;;
6193;SDS011;3130;41.564;23.280;2023-09-19T14:53:20;8.98;;;7.68;;
6193;SDS011;3130;41.564;23.280;2023-09-19T14:55:47;10.80;;;8.00;;
6193;SDS011;3130;41.564;23.280;2023-09-19T14:58:17;9.70;;;8.27;;
6193;SDS011;3130;41.564;23.280;2023-09-19T15:00:45;11.05;;;8.57;;
6193;SDS011;3130;41.564;23.280;2023-09-19T15:03:14;9.80;;;8.15;;
6193;SDS011;3130;41.564;23.280;2023-09-19T15:05:43;10.25;;;9.05;;
6193;SDS011;3130;41.564;23.280;2023-09-19T15:08:10;10.75;;;8.90;;
6193;SDS011;3130;41.564;23.280;2023-09-19T15:10:37;8.90;;;8.00;;
6193;SDS011;3130;41.564;23.280;2023-09-19T15:13:05;9.25;;;7.93;;
6193;SDS011;3130;41.564;23.280;2023-09-19T15:15:33;9.90;;;8.65;;
6193;SDS011;3130;41.564;23.280;2023-09-19T15:18:00;10.15;;;9.13;;
6193;SDS011;3130;41.564;23.280;2023-09-19T15:20:28;9.27;;;8.32;;